createdAt,value
2022-08-01T00:00:13.807Z,84.40
2022-08-01T00:02:42.643Z,84.20
2022-08-01T00:05:11.674Z,85.50
2022-08-01T00:07:40.396Z,85.70
2022-08-01T00:10:11.315Z,84.20
2022-08-01T00:12:39.844Z,83.00
2022-08-01T00:15:09.832Z,83.00
2022-08-01T00:17:39.543Z,83.90
2022-08-01T00:20:10.090Z,84.90
2022-08-01T00:22:38.216Z,84.20
2022-08-01T00:25:08.251Z,83.40
2022-08-01T00:27:37.585Z,83.60
2022-08-01T00:30:13.133Z,84.90
2022-08-01T00:32:44.173Z,85.90
2022-08-01T00:35:12.601Z,86.80
2022-08-01T00:37:40.738Z,87.10
2022-08-01T00:40:10.078Z,85.50
2022-08-01T00:42:43.270Z,84.50
2022-08-01T00:45:12.572Z,84.10
2022-08-01T00:47:40.646Z,85.30
2022-08-01T00:50:11.497Z,85.60
2022-08-01T00:52:42.082Z,84.90
2022-08-01T00:55:13.753Z,83.80
2022-08-01T00:58:05.065Z,84.00
2022-08-01T01:00:32.937Z,83.90
2022-08-01T01:03:03.316Z,86.30
2022-08-01T01:05:38.154Z,87.10
2022-08-01T01:08:10.691Z,86.80
2022-08-01T01:10:45.064Z,85.60
2022-08-01T01:13:18.986Z,85.20
2022-08-01T01:15:49.808Z,86.50
2022-08-01T01:18:24.489Z,86.70
2022-08-01T01:20:59.094Z,87.40
2022-08-01T01:23:48.277Z,88.40
2022-08-01T01:26:41.220Z,88.30
2022-08-01T01:29:18.653Z,87.90
2022-08-01T01:31:50.621Z,87.90
2022-08-01T01:34:22.334Z,87.90
2022-08-01T01:36:53.650Z,88.20
2022-08-01T01:39:23.816Z,88.20
2022-08-01T01:41:53.443Z,88.80
2022-08-01T01:44:23.013Z,89.00
2022-08-01T01:46:53.596Z,89.00
2022-08-01T01:49:23.836Z,88.70
2022-08-01T01:52:02.951Z,88.90
2022-08-01T01:54:34.492Z,90.00
2022-08-01T01:57:05.381Z,90.10
2022-08-01T01:59:38.247Z,90.30
2022-08-01T02:02:08.707Z,90.40
2022-08-01T02:04:43.499Z,90.40
2022-08-01T02:07:14.402Z,90.40
2022-08-01T02:09:44.897Z,90.30
2022-08-01T02:12:14.463Z,90.40
2022-08-01T02:14:46.863Z,90.40
2022-08-01T02:17:18.471Z,90.40
2022-08-01T02:19:47.342Z,90.20
2022-08-01T02:22:22.259Z,89.10
2022-08-01T02:24:56.795Z,90.50
2022-08-01T02:27:30.703Z,90.50
2022-08-01T02:30:02.375Z,90.10
2022-08-01T02:32:34.083Z,90.00
2022-08-01T02:35:04.479Z,89.00
2022-08-01T02:37:36.108Z,89.10
2022-08-01T02:40:06.387Z,90.20
2022-08-01T02:42:38.927Z,90.30
2022-08-01T02:45:10.938Z,90.40
2022-08-01T02:47:42.101Z,90.40
2022-08-01T02:50:14.528Z,90.60
2022-08-01T02:52:43.793Z,90.30
2022-08-01T02:55:13.623Z,90.10
2022-08-01T02:57:51.469Z,90.60
2022-08-01T03:00:24.661Z,90.90
2022-08-01T03:02:55.948Z,90.70
2022-08-01T03:05:26.283Z,90.60
2022-08-01T03:07:57.159Z,90.90
2022-08-01T03:10:32.231Z,91.00
2022-08-01T03:13:02.351Z,91.10
2022-08-01T03:15:35.078Z,90.80
2022-08-01T03:18:04.900Z,90.90
2022-08-01T03:20:35.373Z,90.90
2022-08-01T03:23:07.368Z,90.70
2022-08-01T03:25:38.619Z,90.70
2022-08-01T03:28:08.475Z,91.10
2022-08-01T03:30:42.422Z,90.80
2022-08-01T03:33:14.437Z,90.70
2022-08-01T03:35:56.179Z,91.00
2022-08-01T03:38:27.632Z,91.20
2022-08-01T03:40:58.931Z,91.20
2022-08-01T03:43:33.030Z,91.20
2022-08-01T03:46:08.695Z,91.20
2022-08-01T03:48:42.862Z,91.10
2022-08-01T03:51:11.905Z,90.80
2022-08-01T03:53:44.741Z,91.10
2022-08-01T03:56:14.872Z,90.80
2022-08-01T03:58:44.739Z,91.70
2022-08-01T04:01:20.612Z,92.30
2022-08-01T04:03:49.132Z,92.40
2022-08-01T04:06:18.255Z,92.30
2022-08-01T04:08:56.452Z,92.30
2022-08-01T04:11:26.661Z,92.50
2022-08-01T04:13:55.584Z,92.40
2022-08-01T04:16:25.424Z,92.10
2022-08-01T04:18:53.983Z,92.20
2022-08-01T04:21:25.967Z,92.00
2022-08-01T04:23:58.111Z,91.40
2022-08-01T04:26:27.870Z,91.60
2022-08-01T04:28:57.795Z,91.40
2022-08-01T04:31:29.326Z,91.30
2022-08-01T04:34:00.572Z,91.40
2022-08-01T04:36:30.846Z,91.20
2022-08-01T04:39:03.359Z,91.50
2022-08-01T04:41:32.909Z,91.70
2022-08-01T04:44:01.617Z,92.00
2022-08-01T04:46:31.994Z,91.90
2022-08-01T04:49:01.545Z,91.80
2022-08-01T04:51:29.850Z,91.70
2022-08-01T04:53:58.823Z,91.60
2022-08-01T04:56:26.816Z,91.70
2022-08-01T04:59:08.949Z,91.70
2022-08-01T05:01:38.532Z,91.70
2022-08-01T05:04:06.889Z,91.30
2022-08-01T05:06:34.974Z,91.10
2022-08-01T05:09:03.110Z,91.90
2022-08-01T05:11:31.758Z,91.80
2022-08-01T05:13:59.914Z,91.70
2022-08-01T05:16:27.978Z,91.80
2022-08-01T05:18:57.952Z,91.70
2022-08-01T05:21:26.062Z,91.60
2022-08-01T05:23:54.253Z,91.60
2022-08-01T05:26:22.330Z,91.20
2022-08-01T05:28:50.392Z,91.20
2022-08-01T05:31:18.513Z,91.30
2022-08-01T05:33:46.606Z,91.30
2022-08-01T05:36:16.102Z,91.40
2022-08-01T05:38:44.205Z,91.60
2022-08-01T05:41:12.673Z,92.50
2022-08-01T05:43:40.768Z,92.60
2022-08-01T05:46:09.025Z,92.70
2022-08-01T05:48:37.107Z,92.80
2022-08-01T05:51:05.439Z,93.00
2022-08-01T05:53:35.526Z,93.00
2022-08-01T05:56:03.923Z,92.90
2022-08-01T05:58:32.842Z,93.00
2022-08-01T06:01:01.170Z,92.90
2022-08-01T06:03:32.243Z,92.90
2022-08-01T06:06:00.464Z,92.70
2022-08-01T06:08:29.087Z,92.70
2022-08-01T06:10:58.979Z,92.60
2022-08-01T06:13:27.245Z,92.50
2022-08-01T06:15:55.390Z,92.60
2022-08-01T06:18:23.506Z,92.60
2022-08-01T06:20:51.601Z,92.50
2022-08-01T06:23:32.516Z,92.40
2022-08-01T06:26:02.537Z,92.40
2022-08-01T06:28:30.676Z,92.10
2022-08-01T06:31:00.417Z,92.00
2022-08-01T06:33:29.292Z,91.60
2022-08-01T06:35:57.507Z,91.50
2022-08-01T06:38:26.020Z,91.30
2022-08-01T06:40:54.086Z,91.00
2022-08-01T06:43:23.630Z,90.80
2022-08-01T06:45:51.770Z,90.70
2022-08-01T06:48:19.846Z,90.60
2022-08-01T06:50:47.966Z,90.50
2022-08-01T06:53:16.083Z,90.10
2022-08-01T06:55:44.193Z,90.00
2022-08-01T06:58:12.251Z,89.80
2022-08-01T07:00:43.362Z,89.70
2022-08-01T07:03:11.537Z,89.00
2022-08-01T07:05:39.598Z,88.50
2022-08-01T07:08:07.748Z,88.20
2022-08-01T07:10:35.930Z,87.50
2022-08-01T07:13:04.027Z,87.30
2022-08-01T07:15:32.391Z,87.00
2022-08-01T07:18:04.718Z,86.60
2022-08-01T07:20:37.648Z,86.00
2022-08-01T07:23:09.441Z,85.20
2022-08-01T07:25:41.091Z,83.30
2022-08-01T07:28:18.753Z,83.60
2022-08-01T07:30:46.826Z,83.20
2022-08-01T07:33:16.370Z,83.30
2022-08-01T07:35:44.560Z,82.40
2022-08-01T07:38:12.982Z,82.80
2022-08-01T07:40:41.125Z,82.30
2022-08-01T07:43:09.256Z,80.40
2022-08-01T07:45:37.546Z,80.90
2022-08-01T07:48:09.030Z,80.80
2022-08-01T07:50:38.990Z,79.80
2022-08-01T07:53:07.269Z,79.30
2022-08-01T07:55:35.496Z,79.50
2022-08-01T07:58:03.667Z,78.50
2022-08-01T08:00:31.946Z,79.00
2022-08-01T08:03:00.562Z,79.40
2022-08-01T08:05:51.636Z,79.20
2022-08-01T08:08:19.218Z,79.00
2022-08-01T08:10:50.163Z,78.10
2022-08-01T08:13:18.810Z,76.00
2022-08-01T08:15:49.158Z,75.80
2022-08-01T08:18:17.379Z,75.00
2022-08-01T08:20:46.139Z,74.10
2022-08-01T08:23:42.909Z,74.00
2022-08-01T08:26:13.947Z,74.00
2022-08-01T08:28:42.019Z,73.60
2022-08-01T08:31:25.202Z,72.40
2022-08-01T08:33:58.731Z,71.10
2022-08-01T08:36:31.171Z,71.30
2022-08-01T08:39:01.478Z,71.80
2022-08-01T08:41:37.003Z,71.20
2022-08-01T08:44:09.925Z,70.00
2022-08-01T08:46:44.920Z,69.10
2022-08-01T08:49:19.689Z,68.00
2022-08-01T08:51:50.656Z,68.20
2022-08-01T08:54:29.529Z,66.50
2022-08-01T08:57:02.414Z,65.80
2022-08-01T08:59:31.029Z,65.80
2022-08-01T09:01:59.173Z,64.80
2022-08-01T09:04:28.647Z,64.50
2022-08-01T09:06:56.947Z,63.40
2022-08-01T09:09:25.591Z,63.30
2022-08-01T09:11:57.079Z,62.60
2022-08-01T09:14:31.418Z,62.50
2022-08-01T09:17:04.681Z,61.50
2022-08-01T09:19:41.876Z,59.80
2022-08-01T09:22:12.838Z,57.90
2022-08-01T09:24:42.049Z,57.40
2022-08-01T09:27:21.943Z,57.40
2022-08-01T09:30:00.737Z,58.20
2022-08-01T09:32:36.131Z,56.10
2022-08-01T09:35:29.989Z,57.60
2022-08-01T09:38:19.031Z,58.50
2022-08-01T09:40:49.537Z,57.90
2022-08-01T09:43:19.077Z,57.50
2022-08-01T09:45:50.604Z,57.60
2022-08-01T09:48:22.816Z,57.90
2022-08-01T09:51:04.368Z,59.60
2022-08-01T09:53:52.385Z,58.50
2022-08-01T09:56:23.323Z,57.50
2022-08-01T09:58:59.226Z,57.60
2022-08-01T10:01:36.614Z,57.40
2022-08-01T10:04:09.631Z,56.40
2022-08-01T10:06:38.602Z,55.60
2022-08-01T10:09:09.000Z,54.30
2022-08-01T10:11:40.212Z,53.00
2022-08-01T10:14:09.732Z,53.30
2022-08-01T10:16:40.269Z,51.90
2022-08-01T10:19:14.628Z,51.40
2022-08-01T10:21:58.593Z,51.40
2022-08-01T10:24:30.195Z,51.00
2022-08-01T10:27:05.862Z,50.80
2022-08-01T10:29:46.413Z,51.40
2022-08-01T10:32:29.509Z,52.60
2022-08-01T10:34:58.458Z,53.70
2022-08-01T10:37:27.319Z,51.80
2022-08-01T10:40:27.215Z,51.60
2022-08-01T10:42:45.550Z,50.70
2022-08-01T10:45:18.964Z,50.10
2022-08-01T10:47:55.612Z,49.90
2022-08-01T10:50:29.817Z,50.50
2022-08-01T10:53:15.897Z,50.60
2022-08-01T10:55:55.213Z,51.90
2022-08-01T10:58:27.583Z,51.20
2022-08-01T11:01:18.343Z,51.10
2022-08-01T11:04:04.167Z,48.10
2022-08-01T11:06:50.812Z,48.80
2022-08-01T11:09:37.102Z,47.00
2022-08-01T11:12:13.384Z,44.80
2022-08-01T11:15:29.710Z,44.20
2022-08-01T11:18:00.353Z,42.80
2022-08-01T11:20:32.501Z,44.50
2022-08-01T11:23:35.894Z,43.50
2022-08-01T11:26:29.116Z,43.30
2022-08-01T11:29:22.660Z,43.20
2022-08-01T11:31:52.844Z,43.40
2022-08-01T11:34:21.692Z,44.00
2022-08-01T11:36:59.668Z,43.00
2022-08-01T11:39:29.548Z,43.00
2022-08-01T11:42:18.027Z,43.40
2022-08-01T11:44:52.323Z,43.00
2022-08-01T11:47:21.399Z,43.00
2022-08-01T11:49:56.233Z,43.30
2022-08-01T11:52:30.900Z,42.60
2022-08-01T11:55:10.228Z,41.20
2022-08-01T11:57:39.532Z,40.70
2022-08-01T12:00:15.274Z,41.10
2022-08-01T12:02:46.779Z,40.80
2022-08-01T12:05:18.471Z,42.20
2022-08-01T12:07:52.664Z,41.40
2022-08-01T12:10:22.115Z,41.40
2022-08-01T12:12:51.635Z,41.50
2022-08-01T12:15:20.797Z,40.90
2022-08-01T12:17:58.186Z,41.30
2022-08-01T12:20:30.733Z,40.10
2022-08-01T12:23:03.020Z,38.80
2022-08-01T12:25:31.506Z,38.00
2022-08-01T12:28:03.143Z,37.50
2022-08-01T12:30:32.772Z,38.50
2022-08-01T12:33:01.133Z,37.80
2022-08-01T12:35:31.607Z,37.40
2022-08-01T12:38:02.483Z,38.80
2022-08-01T12:40:32.454Z,38.20
2022-08-01T12:43:03.292Z,38.80
2022-08-01T12:45:35.154Z,38.20
2022-08-01T12:48:04.101Z,38.40
2022-08-01T12:50:34.195Z,36.80
2022-08-01T12:53:04.639Z,37.10
2022-08-01T12:55:38.237Z,37.90
2022-08-01T12:58:26.075Z,37.00
2022-08-01T13:01:06.141Z,37.00
2022-08-01T13:03:34.436Z,37.50
2022-08-01T13:06:02.809Z,37.40
2022-08-01T13:08:38.947Z,37.70
2022-08-01T13:11:10.018Z,37.30
2022-08-01T13:13:40.982Z,37.50
2022-08-01T13:16:12.310Z,37.70
2022-08-01T13:18:51.524Z,37.10
2022-08-01T13:21:21.262Z,37.70
2022-08-01T13:24:08.112Z,37.00
2022-08-01T13:26:42.976Z,37.90
2022-08-01T13:29:13.780Z,38.10
2022-08-01T13:31:42.709Z,38.50
2022-08-01T13:34:11.055Z,38.10
2022-08-01T13:36:41.237Z,38.60
2022-08-01T13:39:30.285Z,39.00
2022-08-01T13:42:07.447Z,39.20
2022-08-01T13:44:35.798Z,39.70
2022-08-01T13:47:14.911Z,42.50
2022-08-01T13:49:44.350Z,41.20
2022-08-01T13:52:12.656Z,40.00
2022-08-01T13:54:42.350Z,37.50
2022-08-01T13:57:10.557Z,38.30
2022-08-01T13:59:38.763Z,38.60
2022-08-01T14:02:07.280Z,38.90
2022-08-01T14:04:35.617Z,38.00
2022-08-01T14:07:09.630Z,38.40
2022-08-01T14:09:57.631Z,38.10
2022-08-01T14:12:29.914Z,38.70
2022-08-01T14:14:58.125Z,38.90
2022-08-01T14:17:26.171Z,40.10
2022-08-01T14:19:57.534Z,38.70
2022-08-01T14:22:25.686Z,38.70
2022-08-01T14:24:59.509Z,40.40
2022-08-01T14:27:31.835Z,42.30
2022-08-01T14:30:02.761Z,41.70
2022-08-01T14:32:34.209Z,42.00
2022-08-01T14:35:02.656Z,42.00
2022-08-01T14:37:34.715Z,43.00
2022-08-01T14:40:10.326Z,44.40
2022-08-01T14:42:39.268Z,45.90
2022-08-01T14:45:09.814Z,45.10
2022-08-01T14:47:38.730Z,44.90
2022-08-01T14:50:09.629Z,45.20
2022-08-01T14:52:39.084Z,44.20
2022-08-01T14:55:10.803Z,43.80
2022-08-01T14:57:39.999Z,45.10
2022-08-01T15:00:11.540Z,44.70
2022-08-01T15:02:39.829Z,47.10
2022-08-01T15:05:09.483Z,49.00
2022-08-01T15:07:52.132Z,46.60
2022-08-01T15:10:24.016Z,45.10
2022-08-01T15:12:52.111Z,46.60
2022-08-01T15:15:20.945Z,49.00
2022-08-01T15:17:49.049Z,49.40
2022-08-01T15:20:17.211Z,49.40
2022-08-01T15:22:45.354Z,50.20
2022-08-01T15:25:13.731Z,51.70
2022-08-01T15:27:43.282Z,52.10
2022-08-01T15:30:11.960Z,52.60
2022-08-01T15:32:40.367Z,53.90
2022-08-01T15:35:11.169Z,54.50
2022-08-01T15:37:42.825Z,55.20
2022-08-01T15:40:13.078Z,56.40
2022-08-01T15:42:42.632Z,57.50
2022-08-01T15:45:25.636Z,57.10
2022-08-01T15:47:59.686Z,57.60
2022-08-01T15:50:27.723Z,57.90
2022-08-01T15:52:55.831Z,58.10
2022-08-01T15:55:24.005Z,58.30
2022-08-01T15:57:53.458Z,59.10
2022-08-01T16:00:21.583Z,58.90
2022-08-01T16:02:49.712Z,57.90
2022-08-01T16:05:20.383Z,55.60
2022-08-01T16:07:59.551Z,55.70
2022-08-01T16:10:32.290Z,58.30
2022-08-01T16:13:06.828Z,59.40
2022-08-01T16:15:36.650Z,60.30
2022-08-01T16:18:05.486Z,62.20
2022-08-01T16:20:33.932Z,60.40
2022-08-01T16:23:02.176Z,61.90
2022-08-01T16:25:30.445Z,64.40
2022-08-01T16:27:58.535Z,64.80
2022-08-01T16:30:28.162Z,65.50
2022-08-01T16:33:03.924Z,65.10
2022-08-01T16:35:36.388Z,60.90
2022-08-01T16:38:04.900Z,60.00
2022-08-01T16:40:46.380Z,60.60
2022-08-01T16:43:15.453Z,60.60
2022-08-01T16:45:45.190Z,61.80
2022-08-01T16:48:15.379Z,64.00
2022-08-01T16:50:43.507Z,66.20
2022-08-01T16:53:13.113Z,66.10
2022-08-01T16:55:50.234Z,66.70
2022-08-01T16:58:27.126Z,67.50
2022-08-01T17:01:58.717Z,68.90
2022-08-01T17:03:53.798Z,68.90
2022-08-01T17:06:23.887Z,68.80
2022-08-01T17:08:52.067Z,68.50
2022-08-01T17:11:20.262Z,67.40
2022-08-01T17:13:48.924Z,66.30
2022-08-01T17:16:18.460Z,66.10
2022-08-01T17:18:46.721Z,65.60
2022-08-01T17:21:14.901Z,67.00
2022-08-01T17:23:43.118Z,69.30
2022-08-01T17:26:11.591Z,69.20
2022-08-01T17:28:39.743Z,69.10
2022-08-01T17:31:09.371Z,69.40
2022-08-01T17:33:44.561Z,70.10
2022-08-01T17:36:15.268Z,70.40
2022-08-01T17:38:43.435Z,70.50
2022-08-01T17:41:11.735Z,70.90
2022-08-01T17:43:39.955Z,71.50
2022-08-01T17:46:08.200Z,72.20
2022-08-01T17:48:36.286Z,73.90
2022-08-01T17:51:06.506Z,73.10
2022-08-01T17:53:34.968Z,72.80
2022-08-01T17:56:05.838Z,72.70
2022-08-01T17:58:51.890Z,73.10
2022-08-01T18:01:21.443Z,73.30
2022-08-01T18:03:49.970Z,72.50
2022-08-01T18:06:23.476Z,72.90
2022-08-01T18:08:55.212Z,74.40
2022-08-01T18:11:27.144Z,75.20
2022-08-01T18:13:56.398Z,75.30
2022-08-01T18:16:24.671Z,76.10
2022-08-01T18:18:52.801Z,76.80
2022-08-01T18:21:22.238Z,76.70
2022-08-01T18:23:51.366Z,77.30
2022-08-01T18:26:20.553Z,77.10
2022-08-01T18:28:48.626Z,76.50
2022-08-01T18:31:19.841Z,74.10
2022-08-01T18:33:48.089Z,76.10
2022-08-01T18:36:32.940Z,78.00
2022-08-01T18:39:06.362Z,78.70
2022-08-01T18:41:39.742Z,79.40
2022-08-01T18:44:09.316Z,78.70
2022-08-01T18:46:38.399Z,76.60
2022-08-01T18:49:07.308Z,75.60
2022-08-01T18:51:37.897Z,75.20
2022-08-01T18:54:09.915Z,75.10
2022-08-01T18:56:37.983Z,76.60
2022-08-01T18:59:06.050Z,78.10
2022-08-01T19:01:34.211Z,78.20
2022-08-01T19:04:02.583Z,77.70
2022-08-01T19:06:30.836Z,77.10
2022-08-01T19:09:02.423Z,77.50
2022-08-01T19:11:33.123Z,79.20
2022-08-01T19:14:02.398Z,79.20
2022-08-01T19:16:31.025Z,77.70
2022-08-01T19:18:59.419Z,76.90
2022-08-01T19:21:27.778Z,75.90
2022-08-01T19:24:13.584Z,75.60
2022-08-01T19:26:48.008Z,76.60
2022-08-01T19:29:19.857Z,75.10
2022-08-01T19:31:49.417Z,73.80
2022-08-01T19:34:18.749Z,73.90
2022-08-01T19:36:50.552Z,73.80
2022-08-01T19:39:23.531Z,75.80
2022-08-01T19:41:54.024Z,76.60
2022-08-01T19:44:24.558Z,77.20
2022-08-01T19:46:53.472Z,75.60
2022-08-01T19:49:23.052Z,74.80
2022-08-01T19:51:53.027Z,74.90
2022-08-01T19:54:22.771Z,73.20
2022-08-01T19:56:54.993Z,72.90
2022-08-01T19:59:24.776Z,75.40
2022-08-01T20:01:54.408Z,76.20
2022-08-01T20:04:23.059Z,75.90
2022-08-01T20:06:51.166Z,75.90
2022-08-01T20:09:19.264Z,75.70
2022-08-01T20:11:50.183Z,75.10
2022-08-01T20:14:22.320Z,74.20
2022-08-01T20:16:53.557Z,73.60
2022-08-01T20:19:24.431Z,73.60
2022-08-01T20:22:02.639Z,73.40
2022-08-01T20:24:41.890Z,72.90
2022-08-01T20:27:13.483Z,73.10
2022-08-01T20:29:45.380Z,73.90
2022-08-01T20:32:14.082Z,73.90
2022-08-01T20:34:42.544Z,73.90
2022-08-01T20:37:12.827Z,74.60
2022-08-01T20:39:45.339Z,75.10
2022-08-01T20:42:13.921Z,75.00
2022-08-01T20:44:45.362Z,75.10
